Date,TemperatureHighF,TemperatureAvgF,TemperatureLowF,DewpointHighF,DewpointAvgF,DewpointLowF,HumidityHigh,HumidityAvg,HumidityLow,PressureMaxIn,PressureMinIn,WindSpeedMaxMPH,WindSpeedAvgMPH,GustSpeedMaxMPH,PrecipitationSumIn
2013-1-1,51,41,33,-100,-100,-100,0,0,100,0.00,40.00,5,2,5,0.00
2013-1-2,49,39,32,-100,-100,-100,0,0,100,0.00,40.00,5,3,6,0.00
2013-1-3,39,33,32,-100,-100,-100,0,0,100,0.00,40.00,9,3,9,0.00
2013-1-4,37,34,31,-100,-100,-100,0,0,100,0.00,40.00,6,2,8,0.00
2013-1-5,43,32,23,-100,-100,-100,0,0,100,0.00,40.00,5,2,9,0.00
2013-1-6,50,36,24,-100,-100,-100,0,0,100,0.00,40.00,5,2,7,0.00
2013-1-7,56,45,38,-100,-100,-100,0,0,100,0.00,40.00,7,3,8,0.00
2013-1-8,61,49,40,-100,-100,-100,0,0,100,0.00,40.00,5,2,5,0.00
2013-1-9,60,49,41,-100,-100,-100,0,0,100,0.00,40.00,6,3,6,0.00
2013-1-10,64,46,33,-100,-100,-100,0,0,100,0.00,40.00,6,2,9,0.00
2013-1-11,58,48,37,-100,-100,-100,0,0,100,0.00,40.00,6,4,20,0.00
2013-1-12,45,36,29,-100,-100,-100,0,0,100,0.00,40.00,9,4,13,0.00
2013-1-13,44,33,20,-100,-100,-100,0,0,100,0.00,40.00,8,2,8,0.00
2013-1-14,47,34,26,-100,-100,-100,0,0,100,0.00,40.00,7,2,10,0.00
2013-1-15,40,31,25,-100,-100,-100,0,0,100,0.00,40.00,5,2,7,0.00
2013-1-16,48,34,22,-100,-100,-100,0,0,100,0.00,40.00,7,2,8,0.00
2013-1-17,60,43,25,-100,-100,-100,0,0,100,0.00,40.00,9,2,9,0.00
2013-1-18,62,45,37,-100,-100,-100,0,0,100,0.00,40.00,4,2,6,0.00
2013-1-19,65,44,29,-100,-100,-100,0,0,100,0.00,40.00,6,2,8,0.00
2013-1-20,65,46,28,-100,-100,-100,0,0,100,0.00,40.00,7,3,9,0.00
2013-1-21,65,52,38,-100,-100,-100,0,0,100,0.00,40.00,8,3,11,0.00
2013-1-22,65,51,41,-100,-100,-100,0,0,100,0.00,40.00,8,3,8,0.00
2013-1-23,73,49,32,-100,-100,-100,0,0,100,0.00,40.00,6,2,9,0.00
2013-1-24,74,56,36,-100,-100,-100,0,0,100,0.00,40.00,8,3,8,0.00
2013-1-25,65,58,49,-100,-100,-100,0,0,100,0.00,40.00,7,2,8,0.00
2013-1-26,67,58,52,-100,-100,-100,0,0,100,0.00,40.00,4,2,10,0.00
2013-1-27,67,60,50,-100,-100,-100,0,0,100,0.00,40.00,4,2,10,0.00
2013-1-28,65,53,41,-100,-100,-100,0,0,100,0.00,40.00,12,4,12,0.00
2013-1-29,52,41,37,-100,-100,-100,0,0,100,0.00,40.00,10,6,17,0.00
2013-1-30,49,40,34,-100,-100,-100,0,0,100,0.00,40.00,8,4,15,0.00
2013-1-31,61,47,30,-100,-100,-100,0,0,100,0.00,40.00,5,2,6,0.00
2013-2-1,65,46,29,-100,-100,-100,0,0,100,0.00,40.00,6,3,12,0.00
2013-2-2,69,52,37,-100,-100,-100,0,0,100,0.00,40.00,5,2,8,0.00
2013-2-3,68,53,40,-100,-100,-100,0,0,100,0.00,40.00,8,3,9,0.00
2013-2-4,69,61,52,-100,-100,-100,0,0,100,0.00,40.00,5,2,7,0.00
2013-2-5,70,55,42,-100,-100,-100,0,0,100,0.00,40.00,5,2,8,0.00
2013-2-6,70,56,40,-100,-100,-100,0,0,100,0.00,40.00,5,2,8,0.00
2013-2-7,68,59,51,-100,-100,-100,0,0,100,0.00,40.00,5,2,6,0.00
2013-2-8,72,58,47,-100,-100,-100,0,0,100,0.00,40.00,9,2,9,0.00
2013-2-9,63,52,44,-100,-100,-100,0,0,100,0.00,40.00,12,6,15,0.00
2013-2-10,57,46,29,-100,-100,-100,0,0,100,0.00,40.00,9,4,14,0.00
2013-2-11,62,46,29,-100,-100,-100,0,0,100,0.00,40.00,7,2,7,0.00
2013-2-12,53,43,32,-100,-100,-100,0,0,100,0.00,40.00,10,3,10,0.00
2013-2-13,57,42,27,-100,-100,-100,0,0,100,0.00,40.00,6,2,11,0.00
2013-2-14,62,44,29,-100,-100,-100,0,0,100,0.00,40.00,13,3,13,0.00
2013-2-15,59,48,40,-100,-100,-100,0,0,100,0.00,40.00,7,2,7,0.00
2013-2-16,65,46,30,-100,-100,-100,0,0,100,0.00,40.00,6,3,8,0.00
2013-2-17,70,48,27,-100,-100,-100,0,0,100,0.00,40.00,8,3,12,0.00
2013-2-18,65,58,51,-100,-100,-100,0,0,100,0.00,40.00,11,4,12,0.00
2013-2-19,62,51,43,-100,-100,-100,0,0,100,0.00,40.00,6,3,8,0.00
2013-2-20,62,52,40,-100,-100,-100,0,0,100,0.00,40.00,20,5,20,0.00
2013-2-21,54,44,35,-100,-100,-100,0,0,100,0.00,40.00,12,6,23,0.00
2013-2-22,58,47,37,-100,-100,-100,0,0,100,0.00,40.00,9,3,11,0.00
2013-2-23,62,49,36,-100,-100,-100,0,0,100,0.00,40.00,5,3,9,0.00
2013-2-24,63,53,39,-100,-100,-100,0,0,100,0.00,40.00,10,4,22,0.00
2013-2-25,56,44,36,-100,-100,-100,0,0,100,0.00,40.00,9,4,12,0.00
2013-2-26,67,50,36,-100,-100,-100,0,0,100,0.00,40.00,7,3,10,0.00
2013-2-27,58,46,38,-100,-100,-100,0,0,100,0.00,40.00,6,3,8,0.00
2013-2-28,60,47,35,-100,-100,-100,0,0,100,0.00,40.00,6,3,7,0.00
2013-3-1,67,53,36,-100,-100,-100,0,0,100,0.00,40.00,6,3,7,0.00
2013-3-2,73,55,34,-100,-100,-100,0,0,100,0.00,40.00,7,3,11,0.00
2013-3-3,81,64,37,-100,-100,-100,0,0,100,0.00,40.00,10,4,11,0.00
2013-3-4,80,71,64,-100,-100,-100,0,0,100,0.00,40.00,9,5,15,0.00
2013-3-5,69,57,44,-100,-100,-100,0,0,100,0.00,40.00,7,3,9,0.00
2013-3-6,79,63,52,-100,-100,-100,0,0,100,0.00,40.00,10,3,10,0.00
2013-3-7,81,66,54,-100,-100,-100,0,0,100,0.00,40.00,7,3,10,0.00
2013-3-8,74,66,58,-100,-100,-100,0,0,100,0.00,40.00,8,4,11,0.00
2013-3-9,62,52,46,-100,-100,-100,0,0,100,0.00,40.00,12,6,16,0.00
2013-3-10,58,49,37,-100,-100,-100,0,0,100,0.00,40.00,5,3,8,0.00
2013-3-11,69,52,35,-100,-100,-100,0,0,100,0.00,40.00,9,3,9,0.00
2013-3-12,76,61,46,-100,-100,-100,0,0,100,0.00,40.00,7,3,9,0.00
2013-3-13,79,62,44,-100,-100,-100,0,0,100,0.00,40.00,6,3,9,0.00
2013-3-14,84,62,43,-100,-100,-100,0,0,100,0.00,40.00,7,2,9,0.00
2013-3-15,87,67,46,-100,-100,-100,0,0,100,0.00,40.00,7,3,8,0.00
2013-3-16,85,73,61,-100,-100,-100,0,0,100,0.00,40.00,10,4,14,0.00
2013-3-17,80,73,65,-100,-100,-100,0,0,100,0.00,40.00,9,4,18,0.00
2013-3-18,79,71,63,-100,-100,-100,0,0,100,0.00,40.00,8,3,13,0.00
2013-3-19,78,67,43,-100,-100,-100,0,0,100,0.00,40.00,7,3,9,0.00
2013-3-20,76,64,37,-100,-100,-100,0,0,100,0.00,40.00,5,2,6,0.00
2013-3-21,81,70,58,-100,-100,-100,0,0,100,0.00,40.00,10,5,13,0.00
2013-3-22,80,71,59,-100,-100,-100,0,0,100,0.00,40.00,9,4,12,0.00
2013-3-23,73,67,57,-100,-100,-100,0,0,100,0.00,40.00,11,7,20,0.00
2013-3-24,66,51,32,-100,-100,-100,0,0,100,0.00,40.00,9,3,10,0.00
2013-3-25,63,52,38,-100,-100,-100,0,0,100,0.00,40.00,7,2,11,0.00
2013-3-26,76,55,37,-100,-100,-100,0,0,100,0.00,40.00,8,2,9,0.00
2013-3-27,80,64,42,-100,-100,-100,0,0,100,0.00,40.00,7,3,8,0.00
2013-3-28,81,67,49,-100,-100,-100,0,0,100,0.00,40.00,9,3,12,0.00
2013-3-29,84,74,64,-100,-100,-100,0,0,100,0.00,40.00,5,2,10,0.00
2013-3-30,85,72,55,-100,-100,-100,0,0,100,0.00,40.00,6,3,8,0.00
2013-3-31,84,72,58,-100,-100,-100,0,0,100,0.00,40.00,8,3,9,0.00
2013-4-1,86,73,53,-100,-100,-100,0,0,100,0.00,40.00,7,3,10,0.00
2013-4-2,82,72,57,-100,-100,-100,0,0,100,0.00,40.00,6,3,11,0.00
2013-4-3,76,64,47,-100,-100,-100,0,0,100,0.00,40.00,6,2,9,0.00
2013-4-4,82,65,48,-100,-100,-100,0,0,100,0.00,40.00,8,3,9,0.00
2013-4-5,87,76,61,-100,-100,-100,0,0,100,0.00,40.00,8,4,9,0.00
2013-4-6,84,77,68,-100,-100,-100,0,0,100,0.00,40.00,6,2,9,0.00
2013-4-7,85,76,67,-100,-100,-100,0,0,100,0.00,40.00,7,3,12,0.00
2013-4-8,87,76,67,-100,-100,-100,0,0,100,0.00,40.00,9,5,15,0.00
2013-4-9,74,62,40,-100,-100,-100,0,0,100,0.00,40.00,15,5,19,0.00
2013-4-10,66,59,48,-100,-100,-100,0,0,100,0.00,40.00,7,3,9,0.00
2013-4-11,74,56,31,-100,-100,-100,0,0,100,0.00,40.00,6,3,8,0.00
2013-4-12,84,68,51,-100,-100,-100,0,0,100,0.00,40.00,7,3,8,0.00
2013-4-13,83,75,60,-100,-100,-100,0,0,100,0.00,40.00,7,3,10,0.00
2013-4-14,83,73,65,-100,-100,-100,0,0,100,0.00,40.00,12,5,12,0.00
2013-4-15,86,74,64,-100,-100,-100,0,0,100,0.00,40.00,10,4,12,0.00
2013-4-16,87,76,68,-100,-100,-100,0,0,100,0.00,40.00,12,5,13,0.00
2013-4-17,82,71,58,-100,-100,-100,0,0,100,0.00,40.00,12,6,18,0.00
2013-4-18,68,54,37,-100,-100,-100,0,0,100,0.00,40.00,7,3,8,0.00
2013-4-19,72,58,43,-100,-100,-100,0,0,100,0.00,40.00,7,3,8,0.00
2013-4-20,81,64,40,-100,-100,-100,0,0,100,0.00,40.00,9,4,10,0.00
2013-4-21,85,68,48,-100,-100,-100,0,0,100,0.00,40.00,9,3,9,0.00
2013-4-22,90,77,62,-100,-100,-100,0,0,100,0.00,40.00,7,3,9,0.00
2013-4-23,89,79,66,-100,-100,-100,0,0,100,0.00,40.00,9,3,12,0.00
2013-4-24,78,62,44,-100,-100,-100,0,0,100,0.00,40.00,9,3,9,0.00
2013-4-25,89,71,59,-100,-100,-100,0,0,100,0.00,40.00,11,3,12,0.00
2013-4-26,85,75,65,-100,-100,-100,0,0,100,0.00,40.00,5,3,10,0.00
2013-4-27,87,72,57,-100,-100,-100,0,0,100,0.00,40.00,8,2,8,0.00
2013-4-28,90,74,55,-100,-100,-100,0,0,100,0.00,40.00,6,2,8,0.00
2013-4-29,93,76,59,-100,-100,-100,0,0,100,0.00,40.00,7,3,8,0.00
2013-4-30,91,84,73,-100,-100,-100,0,0,100,0.00,40.00,6,3,8,0.00
2013-5-1,90,80,65,-100,-100,-100,0,0,100,0.00,40.00,7,3,10,0.00
2013-5-2,76,59,49,-100,-100,-100,0,0,100,0.00,40.00,11,5,11,0.00
2013-5-3,71,58,43,-100,-100,-100,0,0,100,0.00,40.00,6,3,10,0.00
2013-5-4,86,67,47,-100,-100,-100,0,0,100,0.00,40.00,6,2,7,0.00
2013-5-5,89,74,61,-100,-100,-100,0,0,100,0.00,40.00,9,4,9,0.00
2013-5-6,84,75,67,-100,-100,-100,0,0,100,0.00,40.00,7,3,10,0.00
2013-5-7,84,76,67,-100,-100,-100,0,0,100,0.00,40.00,9,4,10,0.00
2013-5-8,81,74,67,-100,-100,-100,0,0,100,0.00,40.00,7,3,8,0.00
2013-5-9,83,73,65,-100,-100,-100,0,0,100,0.00,40.00,6,3,8,0.00
2013-5-10,78,64,58,-100,-100,-100,0,0,100,0.00,40.00,9,3,10,0.00
2013-5-11,77,66,56,-100,-100,-100,0,0,100,0.00,40.00,6,2,9,0.00
2013-5-12,83,71,58,-100,-100,-100,0,0,100,0.00,40.00,5,2,9,0.00
2013-5-13,87,73,60,-100,-100,-100,0,0,100,0.00,40.00,5,2,8,0.00
2013-5-14,89,75,64,-100,-100,-100,0,0,100,0.00,40.00,7,3,8,0.00
2013-5-15,94,81,68,-100,-100,-100,0,0,100,0.00,40.00,10,4,17,0.00
2013-5-16,95,83,76,-100,-100,-100,0,0,100,0.00,40.00,9,3,14,0.00
2013-5-17,98,85,73,-100,-100,-100,0,0,100,0.00,40.00,6,3,9,0.00
2013-5-18,91,83,76,-100,-100,-100,0,0,100,0.00,40.00,8,4,12,0.00
2013-5-19,91,81,71,-100,-100,-100,0,0,100,0.00,40.00,8,4,10,0.00
2013-5-20,92,83,71,-100,-100,-100,0,0,100,0.00,40.00,9,4,13,0.00
2013-5-21,90,78,66,-100,-100,-100,0,0,100,0.00,40.00,7,3,11,0.00
2013-5-22,97,82,61,-100,-100,-100,0,0,100,0.00,40.00,6,3,7,0.00
2013-5-23,99,85,72,-100,-100,-100,0,0,100,0.00,40.00,10,3,10,0.00
2013-5-24,99,84,66,-100,-100,-100,0,0,100,0.00,40.00,7,3,9,0.00
2013-5-25,98,88,73,-100,-100,-100,0,0,100,0.00,40.00,7,3,8,0.00
2013-5-26,98,87,69,-100,-100,-100,0,0,100,0.00,40.00,6,3,10,0.00
2013-5-27,97,85,69,-100,-100,-100,0,0,100,0.00,40.00,6,3,10,0.00
2013-5-28,95,85,73,-100,-100,-100,0,0,100,0.00,40.00,11,4,11,0.00
2013-5-29,91,83,74,-100,-100,-100,0,0,100,0.00,40.00,8,5,13,0.00
2013-5-30,95,86,75,-100,-100,-100,0,0,100,0.00,40.00,9,4,10,0.00
2013-5-31,98,88,80,-100,-100,-100,0,0,100,0.00,40.00,6,3,14,0.00
2013-6-1,102,88,75,-100,-100,-100,0,0,100,0.00,40.00,6,4,12,0.00
2013-6-2,99,82,74,-100,-100,-100,0,0,100,0.00,40.00,6,4,11,0.00
2013-6-3,101,84,69,-100,-100,-100,0,0,100,0.00,40.00,6,3,10,0.00
2013-6-4,101,89,69,-100,-100,-100,0,0,100,0.00,40.00,5,2,12,0.00
2013-6-5,102,93,77,-100,-100,-100,0,0,100,0.00,40.00,8,3,9,0.00
2013-6-6,99,84,73,-100,-100,-100,0,0,100,0.00,40.00,7,2,8,0.00
2013-6-7,98,83,74,-100,-100,-100,0,0,100,0.00,40.00,10,4,10,0.00
2013-6-8,104,88,68,-100,-100,-100,0,0,100,0.00,40.00,7,3,11,0.00
2013-6-9,105,92,78,-100,-100,-100,0,0,100,0.00,40.00,12,5,15,0.00
2013-6-10,107,92,78,-100,-100,-100,0,0,100,0.00,40.00,5,2,12,0.00
2013-6-11,108,93,77,-100,-100,-100,0,0,100,0.00,40.00,7,3,7,0.00
2013-6-12,109,94,77,-100,-100,-100,0,0,100,0.00,40.00,9,3,9,0.00
2013-6-13,102,89,80,-100,-100,-100,0,0,100,0.00,40.00,10,4,11,0.00
2013-6-14,100,83,73,-100,-100,-100,0,0,100,0.00,40.00,7,3,8,0.00
2013-6-15,102,86,71,-100,-100,-100,0,0,100,0.00,40.00,6,2,10,0.00
2013-6-16,103,89,78,-100,-100,-100,0,0,100,0.00,40.00,5,2,8,0.00
2013-6-17,102,90,80,-100,-100,-100,0,0,100,0.00,40.00,10,3,11,0.00
2013-6-18,102,88,73,-100,-100,-100,0,0,100,0.00,40.00,7,2,9,0.00
2013-6-19,105,93,80,-100,-100,-100,0,0,100,0.00,40.00,8,4,11,0.00
2013-6-20,105,92,82,-100,-100,-100,0,0,100,0.00,40.00,8,4,11,0.00
2013-6-22,104,98,93,-100,-100,-100,0,0,100,0.00,40.00,6,3,9,0.00
2013-6-23,103,94,80,-100,-100,-100,0,0,100,0.00,40.00,7,3,8,0.00
2013-6-24,102,93,83,-100,-100,-100,0,0,100,0.00,40.00,8,3,9,0.00
2013-6-25,103,95,83,-100,-100,-100,0,0,100,0.00,40.00,6,2,7,0.00
2013-6-26,107,97,83,-100,-100,-100,0,0,100,0.00,40.00,5,3,8,0.00
2013-6-27,111,95,74,-100,-100,-100,0,0,100,0.00,40.00,6,3,9,0.00
2013-6-28,103,92,82,-100,-100,-100,0,0,100,0.00,40.00,10,4,10,0.00
2013-6-29,108,94,77,-100,-100,-100,0,0,100,0.00,40.00,7,3,10,0.00
2013-6-30,101,89,80,-100,-100,-100,0,0,100,0.00,40.00,7,3,15,0.00
2013-7-1,88,76,68,-100,-100,-100,0,0,100,0.00,40.00,9,4,11,0.00
2013-7-2,92,78,68,-100,-100,-100,0,0,100,0.00,40.00,5,2,7,0.00
2013-7-3,96,84,70,-100,-100,-100,0,0,100,0.00,40.00,7,3,9,0.00
2013-7-4,100,87,72,-100,-100,-100,0,0,100,0.00,40.00,7,2,8,0.00
2013-7-5,105,91,75,-100,-100,-100,0,0,100,0.00,40.00,6,2,8,0.00
2013-7-6,106,90,79,-100,-100,-100,0,0,100,0.00,40.00,7,2,8,0.00
2013-7-7,104,94,82,-100,-100,-100,0,0,100,0.00,40.00,9,3,15,0.00
2013-7-8,102,89,82,-100,-100,-100,0,0,100,0.00,40.00,7,3,9,0.00
2013-7-9,102,91,81,-100,-100,-100,0,0,100,0.00,40.00,6,3,10,0.00
2013-7-10,102,94,81,-100,-100,-100,0,0,100,0.00,40.00,7,3,9,0.00
2013-7-11,102,89,82,-100,-100,-100,0,0,100,0.00,40.00,7,3,11,0.00
2013-7-12,104,89,79,-100,-100,-100,0,0,100,0.00,40.00,8,3,11,0.00
2013-7-13,103,91,78,-100,-100,-100,0,0,100,0.00,40.00,7,3,9,0.00
2013-7-14,105,93,80,-100,-100,-100,0,0,100,0.00,40.00,6,2,8,0.00
2013-7-15,84,79,73,-100,-100,-100,0,0,100,0.00,40.00,10,4,10,0.00
2013-7-16,88,79,70,-100,-100,-100,0,0,100,0.00,40.00,8,4,8,0.00
2013-7-17,81,75,70,-100,-100,-100,0,0,100,0.00,40.00,6,3,9,0.00
2013-7-18,79,72,68,-100,-100,-100,0,0,100,0.00,40.00,6,3,7,0.00
2013-7-19,85,77,71,-100,-100,-100,0,0,100,0.00,40.00,7,3,9,0.00
2013-7-20,91,83,71,-100,-100,-100,0,0,100,0.00,40.00,9,4,9,0.00
2013-7-21,97,84,73,-100,-100,-100,0,0,100,0.00,40.00,5,2,8,0.00
2013-7-22,98,86,77,-100,-100,-100,0,0,100,0.00,40.00,5,2,10,0.00
2013-7-23,98,84,77,-100,-100,-100,0,0,100,0.00,40.00,11,3,13,0.00
2013-7-24,98,86,73,-100,-100,-100,0,0,100,0.00,40.00,6,3,11,0.00
2013-7-25,91,78,69,-100,-100,-100,0,0,100,0.00,40.00,6,2,7,0.00
2013-7-26,94,84,79,-100,-100,-100,0,0,100,0.00,40.00,7,3,10,0.00
2013-7-27,87,76,69,-100,-100,-100,0,0,100,0.00,40.00,8,3,9,0.00
2013-7-28,93,80,72,-100,-100,-100,0,0,100,0.00,40.00,11,3,11,0.00
2013-7-29,98,86,76,-100,-100,-100,0,0,100,0.00,40.00,8,3,8,0.00
2013-7-30,101,87,79,-100,-100,-100,0,0,100,0.00,40.00,8,2,8,0.00
2013-7-31,103,89,77,-100,-100,-100,0,0,100,0.00,40.00,7,2,8,0.00
2013-8-1,101,91,80,-100,-100,-100,0,0,100,0.00,40.00,7,3,10,0.00
2013-8-2,99,90,79,-100,-100,-100,0,0,100,0.00,40.00,6,2,7,0.00
2013-8-3,102,90,80,-100,-100,-100,0,0,100,0.00,40.00,7,3,9,0.00
2013-8-4,104,92,81,-100,-100,-100,0,0,100,0.00,40.00,6,3,8,0.00
2013-8-5,102,89,79,-100,-100,-100,0,0,100,0.00,40.00,8,3,8,0.00
2013-8-6,97,87,76,-100,-100,-100,0,0,100,0.00,40.00,5,3,7,0.00
2013-8-7,93,85,78,-100,-100,-100,0,0,100,0.00,40.00,5,3,11,0.00
2013-8-8,98,86,73,-100,-100,-100,0,0,100,0.00,40.00,7,3,7,0.00
2013-8-9,102,89,73,-100,-100,-100,0,0,100,0.00,40.00,5,3,7,0.00
2013-8-10,89,82,76,-100,-100,-100,0,0,100,0.00,40.00,8,3,9,0.00
2013-8-11,97,81,68,-100,-100,-100,0,0,100,0.00,40.00,7,3,8,0.00
2013-8-12,99,87,77,-100,-100,-100,0,0,100,0.00,40.00,7,2,9,0.00
2013-8-13,95,88,79,-100,-100,-100,0,0,100,0.00,40.00,5,3,6,0.00
2013-8-14,98,86,77,-100,-100,-100,0,0,100,0.00,40.00,8,2,8,0.00
2013-8-15,98,75,73,-100,-100,-100,0,0,100,0.00,40.00,9,3,10,0.00
2013-8-16,102,82,72,-100,-100,-100,0,0,100,0.00,40.00,7,3,8,0.00
2013-8-17,104,87,74,-100,-100,-100,0,0,100,0.00,40.00,7,3,10,0.00
2013-8-18,102,90,76,-100,-100,-100,0,0,100,0.00,40.00,6,3,8,0.00
2013-8-19,102,84,75,-100,-100,-100,0,0,100,0.00,40.00,6,3,9,0.00
2013-8-20,98,86,77,-100,-100,-100,0,0,100,0.00,40.00,4,2,5,0.00
2013-8-21,98,87,75,-100,-100,-100,0,0,100,0.00,40.00,7,3,8,0.00
2013-8-22,99,86,73,-100,-100,-100,0,0,100,0.00,40.00,10,3,10,0.00
2013-8-23,96,84,73,-100,-100,-100,0,0,100,0.00,40.00,7,4,11,0.00
2013-8-24,94,81,70,-100,-100,-100,0,0,100,0.00,40.00,7,4,8,0.00
2013-8-25,98,84,74,-100,-100,-100,0,0,100,0.00,40.00,9,3,11,0.00
2013-8-26,94,85,76,-100,-100,-100,0,0,100,0.00,40.00,7,4,9,0.00
2013-8-27,88,81,74,-100,-100,-100,0,0,100,0.00,40.00,6,3,8,0.00
2013-8-28,86,81,76,-100,-100,-100,0,0,100,0.00,40.00,7,3,8,0.00
2013-8-29,83,75,68,-100,-100,-100,0,0,100,0.00,40.00,7,3,8,0.00
2013-8-30,94,82,71,-100,-100,-100,0,0,100,0.00,40.00,5,2,5,0.00
2013-8-31,99,85,73,-100,-100,-100,0,0,100,0.00,40.00,5,2,9,0.00
2013-9-1,102,90,76,-100,-100,-100,0,0,100,0.00,40.00,10,4,11,0.00
2013-9-2,98,86,76,-100,-100,-100,0,0,100,0.00,40.00,6,3,9,0.00
2013-9-3,98,87,76,-100,-100,-100,0,0,100,0.00,40.00,5,3,7,0.00
2013-9-4,95,85,76,-100,-100,-100,0,0,100,0.00,40.00,7,2,7,0.00
2013-9-5,97,86,76,-100,-100,-100,0,0,100,0.00,40.00,7,3,9,0.00
2013-9-6,97,86,75,-100,-100,-100,0,0,100,0.00,40.00,7,3,9,0.00
2013-9-7,96,86,77,-100,-100,-100,0,0,100,0.00,40.00,11,3,11,0.00
2013-9-8,94,85,77,-100,-100,-100,0,0,100,0.00,40.00,7,3,9,0.00
2013-9-9,94,82,75,-100,-100,-100,0,0,100,0.00,40.00,6,3,10,0.00
2013-9-10,80,74,70,-100,-100,-100,0,0,100,0.00,40.00,6,3,8,0.00
2013-9-11,80,73,70,-100,-100,-100,0,0,100,0.00,40.00,4,2,6,0.00
2013-9-12,72,69,64,-100,-100,-100,0,0,100,0.00,40.00,6,2,9,0.00
2013-9-13,74,70,68,-100,-100,-100,0,0,100,0.00,40.00,5,2,9,0.00
2013-9-14,87,77,67,-100,-100,-100,0,0,100,0.00,40.00,8,3,10,0.00
2013-9-15,91,77,69,-100,-100,-100,0,0,100,0.00,40.00,8,3,8,0.00
2013-9-16,86,76,67,-100,-100,-100,0,0,100,0.00,40.00,6,3,7,0.00
2013-9-17,87,77,70,-100,-100,-100,0,0,100,0.00,40.00,5,2,11,0.00
2013-9-18,81,74,71,-100,-100,-100,0,0,100,0.00,40.00,7,4,8,0.00
2013-9-19,90,77,70,-100,-100,-100,0,0,100,0.00,40.00,8,2,9,0.00
2013-9-20,87,76,69,-100,-100,-100,0,0,100,0.00,40.00,7,3,8,0.00
2013-9-21,83,74,67,-100,-100,-100,0,0,100,0.00,40.00,6,4,9,0.00
2013-9-22,88,79,65,-100,-100,-100,0,0,100,0.00,40.00,9,3,9,0.00
2013-9-23,86,78,72,-100,-100,-100,0,0,100,0.00,40.00,8,4,9,0.00
2013-9-24,89,75,63,-100,-100,-100,0,0,100,0.00,40.00,6,2,9,0.00
2013-9-25,94,77,62,-100,-100,-100,0,0,100,0.00,40.00,6,2,10,0.00
2013-9-26,91,83,75,-100,-100,-100,0,0,100,0.00,40.00,7,3,11,0.00
2013-9-27,89,81,73,-100,-100,-100,0,0,100,0.00,40.00,6,3,9,0.00
2013-9-28,77,68,63,-100,-100,-100,0,0,100,0.00,40.00,7,3,9,0.00
2013-9-29,83,66,49,-100,-100,-100,0,0,100,0.00,40.00,5,2,7,0.00
2013-9-30,89,73,57,-100,-100,-100,0,0,100,0.00,40.00,6,3,7,0.00
2013-10-1,90,81,70,-100,-100,-100,0,0,100,0.00,40.00,4,2,6,0.00
2013-10-2,89,78,60,-100,-100,-100,0,0,100,0.00,40.00,6,2,8,0.00
2013-10-3,87,74,59,-100,-100,-100,0,0,100,0.00,40.00,8,4,9,0.00
2013-10-4,87,80,72,-100,-100,-100,0,0,100,0.00,40.00,6,3,11,0.00
2013-10-5,76,65,58,-100,-100,-100,0,0,100,0.00,40.00,5,3,7,0.00
2013-10-6,76,64,49,-100,-100,-100,0,0,100,0.00,40.00,5,2,8,0.00
2013-10-7,82,64,46,-100,-100,-100,0,0,100,0.00,40.00,6,2,8,0.00
2013-10-8,88,69,49,-100,-100,-100,0,0,100,0.00,40.00,7,3,9,0.00
2013-10-9,87,76,61,-100,-100,-100,0,0,100,0.00,40.00,8,4,8,0.00
2013-10-10,84,75,65,-100,-100,-100,0,0,100,0.00,40.00,10,5,18,0.00
2013-10-11,79,68,58,-100,-100,-100,0,0,100,0.00,40.00,9,3,9,0.00
2013-10-12,86,68,52,-100,-100,-100,0,0,100,0.00,40.00,5,2,7,0.00
2013-10-13,84,73,60,-100,-100,-100,0,0,100,0.00,40.00,7,3,9,0.00
2013-10-14,79,75,72,-100,-100,-100,0,0,100,0.00,40.00,7,3,9,0.00
2013-10-15,76,70,63,-100,-100,-100,0,0,100,0.00,40.00,7,3,9,0.00
2013-10-16,77,67,58,-100,-100,-100,0,0,100,0.00,40.00,6,3,10,0.00
2013-10-17,78,64,47,-100,-100,-100,0,0,100,0.00,40.00,9,2,9,0.00
2013-10-18,78,62,43,-100,-100,-100,0,0,100,0.00,40.00,7,2,9,0.00
2013-10-19,74,59,42,-100,-100,-100,0,0,100,0.00,40.00,5,2,7,0.00
2013-10-20,79,62,40,-100,-100,-100,0,0,100,0.00,40.00,7,2,9,0.00
2013-10-21,74,62,51,-100,-100,-100,0,0,100,0.00,40.00,7,3,8,0.00
2013-10-22,76,62,45,-100,-100,-100,0,0,100,0.00,40.00,6,2,8,0.00
2013-10-23,80,62,43,-100,-100,-100,0,0,100,0.00,40.00,5,2,6,0.00
2013-10-24,83,69,56,-100,-100,-100,0,0,100,0.00,40.00,5,2,6,0.00
2013-10-25,83,70,60,-100,-100,-100,0,0,100,0.00,40.00,9,3,9,0.00
2013-10-26,77,62,56,-100,-100,-100,0,0,100,0.00,40.00,5,2,7,0.00
2013-10-27,78,64,47,-100,-100,-100,0,0,100,0.00,40.00,10,3,10,0.00
2013-10-28,81,67,51,-100,-100,-100,0,0,100,0.00,40.00,9,4,9,0.00
2013-10-29,77,72,65,-100,-100,-100,0,0,100,0.00,40.00,6,3,6,0.00
2013-10-30,73,68,62,-100,-100,-100,0,0,100,0.00,40.00,9,5,14,0.00
2013-10-31,72,62,51,-100,-100,-100,0,0,100,0.00,40.00,9,4,13,0.00
2013-11-1,71,61,47,-100,-100,-100,0,0,100,0.00,40.00,6,3,12,0.00
2013-11-2,75,57,43,-100,-100,-100,0,0,100,0.00,40.00,7,2,10,0.00
2013-11-3,77,66,54,-100,-100,-100,0,0,100,0.00,40.00,6,2,11,0.00
2013-11-4,76,65,54,-100,-100,-100,0,0,100,0.00,40.00,6,3,9,0.00
2013-11-5,70,64,60,-100,-100,-100,0,0,100,0.00,40.00,8,3,9,0.00
2013-11-6,65,54,41,-100,-100,-100,0,0,100,0.00,40.00,6,3,9,0.00
2013-11-7,71,54,35,-100,-100,-100,0,0,100,0.00,40.00,9,2,9,0.00
2013-11-8,74,59,44,-100,-100,-100,0,0,100,0.00,40.00,6,2,7,0.00
2013-11-9,76,58,46,-100,-100,-100,0,0,100,0.00,40.00,5,2,7,0.00
2013-11-10,77,60,40,-100,-100,-100,0,0,100,0.00,40.00,7,2,10,0.00
2013-11-11,78,63,46,-100,-100,-100,0,0,100,0.00,40.00,5,2,7,0.00
2013-11-12,62,56,48,-100,-100,-100,0,0,100,0.00,40.00,6,3,9,0.00
2013-11-13,64,54,47,-100,-100,-100,0,0,100,0.00,40.00,5,2,9,0.00
2013-11-14,73,59,48,-100,-100,-100,0,0,100,0.00,40.00,9,2,9,0.00
2013-11-15,74,61,49,-100,-100,-100,0,0,100,0.00,40.00,9,4,12,0.00
2013-11-16,75,65,58,-100,-100,-100,0,0,100,0.00,40.00,9,4,12,0.00
2013-11-17,72,64,57,-100,-100,-100,0,0,100,0.00,40.00,6,2,9,0.00
2013-11-18,73,61,51,-100,-100,-100,0,0,100,0.00,40.00,7,2,10,0.00
2013-11-19,75,61,49,-100,-100,-100,0,0,100,0.00,40.00,7,2,9,0.00
2013-11-20,73,65,54,-100,-100,-100,0,0,100,0.00,40.00,7,3,9,0.00
2013-11-21,76,67,60,-100,-100,-100,0,0,100,0.00,40.00,5,2,7,0.00
2013-11-22,64,44,36,-100,-100,-100,0,0,100,0.00,40.00,6,4,10,0.00
2013-11-23,41,38,34,-100,-100,-100,0,0,100,0.00,40.00,7,3,10,0.00
2013-11-24,39,34,29,-100,-100,-100,0,0,100,0.00,40.00,8,2,8,0.00
2013-11-25,49,41,36,-100,-100,-100,0,0,100,0.00,40.00,6,2,7,0.00
2013-11-26,57,43,29,-100,-100,-100,0,0,100,0.00,40.00,5,2,9,0.00
2013-11-27,54,42,29,-100,-100,-100,0,0,100,0.00,40.00,8,2,8,0.00
2013-11-28,60,46,35,-100,-100,-100,0,0,100,0.00,40.00,5,2,6,0.00
2013-11-29,67,52,42,-100,-100,-100,0,0,100,0.00,40.00,5,2,7,0.00
2013-11-30,68,53,43,-100,-100,-100,0,0,100,0.00,40.00,6,2,8,0.00
2013-12-1,64,54,47,-100,-100,-100,0,0,100,0.00,40.00,7,1,9,0.00
2013-12-2,69,57,37,-100,-100,-100,0,0,100,0.00,40.00,6,2,13,0.00
2013-12-3,73,66,47,-100,-100,-100,0,0,100,0.00,40.00,6,3,10,0.00
2013-12-4,71,65,61,-100,-100,-100,0,0,100,0.00,40.00,14,6,19,0.00
2013-12-5,62,55,49,-100,-100,-100,0,0,100,0.00,40.00,10,4,10,0.00
2013-12-6,55,47,38,-100,-100,-100,0,0,100,0.00,40.00,6,3,8,0.00
2013-12-7,45,38,35,-100,-100,-100,0,0,100,0.00,40.00,7,2,8,0.00
2013-12-8,59,46,32,-100,-100,-100,0,0,100,0.00,40.00,9,3,12,0.00
2013-12-9,58,44,33,-100,-100,-100,0,0,100,0.00,40.00,11,3,11,0.00
2013-12-10,50,39,30,-100,-100,-100,0,0,100,0.00,40.00,5,3,7,0.00
2013-12-11,57,44,32,-100,-100,-100,0,0,100,0.00,40.00,6,3,8,0.00
2013-12-12,47,42,39,-100,-100,-100,0,0,100,0.00,40.00,4,2,6,0.00
2013-12-13,59,48,36,-100,-100,-100,0,0,100,0.00,40.00,7,3,9,0.00
2013-12-14,58,45,34,-100,-100,-100,0,0,100,0.00,40.00,9,3,10,0.00
2013-12-15,58,43,25,-100,-100,-100,0,0,100,0.00,40.00,7,2,8,0.00
2013-12-16,62,44,29,-100,-100,-100,0,0,100,0.00,40.00,5,2,10,0.00
2013-12-17,67,48,32,-100,-100,-100,0,0,100,0.00,40.00,4,2,9,0.00
2013-12-18,65,48,32,-100,-100,-100,0,0,100,0.00,40.00,7,2,7,0.00
2013-12-19,71,58,39,-100,-100,-100,0,0,100,0.00,40.00,13,4,15,0.00
2013-12-20,62,54,43,-100,-100,-100,0,0,100,0.00,40.00,11,3,11,0.00
2013-12-21,50,43,40,-100,-100,-100,0,0,100,0.00,40.00,12,5,14,0.00
2013-12-22,55,47,37,-100,-100,-100,0,0,100,0.00,40.00,9,3,10,0.00
2013-12-23,56,40,27,-100,-100,-100,0,0,100,0.00,40.00,7,3,7,0.00
2013-12-24,60,42,27,-100,-100,-100,0,0,100,0.00,40.00,6,2,8,0.00
2013-12-25,56,46,36,-100,-100,-100,0,0,100,0.00,40.00,4,1,7,0.00
2013-12-26,54,40,27,-100,-100,-100,0,0,100,0.00,40.00,7,2,10,0.00
2013-12-27,58,43,29,-100,-100,-100,0,0,100,0.00,40.00,5,2,8,0.00
2013-12-28,58,42,25,-100,-100,-100,0,0,100,0.00,40.00,6,2,8,0.00
2013-12-29,54,47,38,-100,-100,-100,0,0,100,0.00,40.00,10,3,10,0.00
2013-12-30,58,42,25,-100,-100,-100,0,0,100,0.00,40.00,4,1,6,0.00
2013-12-31,61,42,26,-100,-100,-100,0,0,100,0.00,40.00,6,2,8,0.00
2014-1-1,65,44,27,-100,-100,-100,0,0,100,0.00,40.00,9,2,11,0.00
2014-1-2,58,46,36,-100,-100,-100,0,0,100,0.00,40.00,9,2,11,0.00